createdAt,value
2023-04-07T00:01:54.401Z,12.81
2023-04-07T00:04:21.061Z,12.78
2023-04-07T00:06:47.747Z,12.72
2023-04-07T00:09:14.315Z,12.69
2023-04-07T00:11:40.842Z,12.65
2023-04-07T00:14:07.455Z,12.63
2023-04-07T00:16:34.020Z,12.59
2023-04-07T00:19:00.559Z,12.57
2023-04-07T00:21:27.196Z,12.55
2023-04-07T00:23:53.947Z,12.47
2023-04-07T00:26:21.137Z,12.49
2023-04-07T00:28:47.829Z,12.43
2023-04-07T00:31:14.641Z,12.41
2023-04-07T00:33:41.390Z,12.36
2023-04-07T00:36:07.982Z,12.21
2023-04-07T00:38:34.487Z,12.14
2023-04-07T00:41:01.294Z,12.11
2023-04-07T00:43:27.849Z,12.04
2023-04-07T00:45:54.513Z,11.95
2023-04-07T00:48:21.423Z,11.86
2023-04-07T00:50:47.956Z,11.81
2023-04-07T00:53:14.524Z,11.79
2023-04-07T00:55:41.322Z,11.78
2023-04-07T00:58:09.221Z,11.74
2023-04-07T01:00:44.349Z,11.83
2023-04-07T01:03:18.914Z,11.78
2023-04-07T01:05:56.416Z,11.75
2023-04-07T01:08:43.916Z,11.83
2023-04-07T01:11:21.845Z,11.74
2023-04-07T01:13:51.006Z,11.61
2023-04-07T01:16:48.286Z,11.67
2023-04-07T01:19:51.323Z,11.74
2023-04-07T01:22:23.782Z,11.60
2023-04-07T01:25:17.169Z,11.70
2023-04-07T01:28:02.474Z,11.65
2023-04-07T01:30:32.129Z,11.54
2023-04-07T01:33:00.034Z,11.50
2023-04-07T01:35:28.158Z,11.44
2023-04-07T01:37:56.093Z,11.40
2023-04-07T01:40:23.007Z,11.36
2023-04-07T01:42:49.961Z,11.37
2023-04-07T01:45:16.973Z,11.35
2023-04-07T01:47:44.118Z,11.34
2023-04-07T01:50:12.051Z,11.32
2023-04-07T01:52:40.006Z,11.31
2023-04-07T01:55:07.225Z,11.27
2023-04-07T01:57:39.258Z,11.24
2023-04-07T02:00:12.767Z,11.21
2023-04-07T02:02:44.665Z,11.19
2023-04-07T02:05:14.113Z,11.17
2023-04-07T02:07:56.105Z,11.24
2023-04-07T02:10:26.220Z,11.18
2023-04-07T02:12:57.066Z,11.11
2023-04-07T02:15:24.541Z,10.87
2023-04-07T02:17:52.996Z,10.59
2023-04-07T02:20:21.049Z,10.51
2023-04-07T02:22:48.079Z,10.95
2023-04-07T02:25:28.861Z,11.17
2023-04-07T02:27:57.198Z,11.11
2023-04-07T02:30:24.051Z,11.06
2023-04-07T02:32:50.935Z,11.09
2023-04-07T02:35:17.502Z,11.09
2023-04-07T02:37:45.017Z,11.07
2023-04-07T02:40:11.803Z,11.06
2023-04-07T02:42:38.642Z,11.06
2023-04-07T02:45:06.018Z,11.07
2023-04-07T02:47:33.497Z,11.01
2023-04-07T02:50:00.300Z,11.02
2023-04-07T02:52:26.852Z,11.03
2023-04-07T02:54:53.769Z,11.03
2023-04-07T02:57:23.957Z,11.07
2023-04-07T02:59:55.190Z,11.07
2023-04-07T03:02:23.272Z,11.05
2023-04-07T03:04:51.975Z,11.05
2023-04-07T03:07:19.363Z,11.02
2023-04-07T03:09:46.677Z,11.02
2023-04-07T03:12:14.726Z,11.03
2023-04-07T03:14:41.247Z,11.02
2023-04-07T03:17:08.084Z,11.02
2023-04-07T03:19:35.351Z,11.01
2023-04-07T03:22:01.900Z,11.06
2023-04-07T03:24:33.910Z,11.07
2023-04-07T03:27:02.297Z,11.05
2023-04-07T03:29:38.593Z,11.07
2023-04-07T03:32:08.043Z,11.07
2023-04-07T03:34:34.665Z,11.06
2023-04-07T03:37:01.157Z,11.04
2023-04-07T03:39:31.022Z,11.08
2023-04-07T03:42:00.101Z,11.10
2023-04-07T03:44:30.275Z,11.16
2023-04-07T03:46:56.812Z,11.11
2023-04-07T03:49:24.537Z,11.14
2023-04-07T03:51:51.636Z,11.17
2023-04-07T03:54:19.455Z,11.17
2023-04-07T03:56:46.215Z,11.18
2023-04-07T03:59:15.455Z,11.22
2023-04-07T04:01:53.027Z,11.27
2023-04-07T04:04:19.640Z,11.25
2023-04-07T04:06:46.146Z,11.31
2023-04-07T04:09:24.860Z,11.34
2023-04-07T04:11:51.464Z,11.33
2023-04-07T04:14:18.640Z,11.30
2023-04-07T04:16:52.162Z,11.33
2023-04-07T04:19:29.619Z,11.32
2023-04-07T04:21:58.246Z,11.31
2023-04-07T04:24:26.391Z,11.32
2023-04-07T04:26:57.178Z,11.34
2023-04-07T04:29:23.698Z,11.28
2023-04-07T04:31:50.708Z,11.36
2023-04-07T04:34:17.494Z,11.43
2023-04-07T04:36:45.155Z,11.48
2023-04-07T04:39:11.951Z,11.58
2023-04-07T04:41:39.410Z,11.59
2023-04-07T04:44:07.043Z,11.54
2023-04-07T04:46:33.921Z,11.58
2023-04-07T04:49:00.724Z,11.58
2023-04-07T04:51:28.012Z,11.62
2023-04-07T04:54:00.852Z,11.63
2023-04-07T04:56:27.904Z,11.63
2023-04-07T04:58:54.494Z,11.63
2023-04-07T05:01:33.611Z,11.72
2023-04-07T05:04:10.408Z,11.71
2023-04-07T05:06:40.970Z,11.76
2023-04-07T05:09:11.064Z,11.88
2023-04-07T05:11:42.966Z,11.91
2023-04-07T05:14:09.590Z,11.96
2023-04-07T05:16:39.719Z,12.05
2023-04-07T05:19:06.877Z,12.13
2023-04-07T05:21:33.354Z,12.21
2023-04-07T05:24:03.036Z,12.29
2023-04-07T05:26:31.855Z,12.38
2023-04-07T05:28:59.580Z,12.36
2023-04-07T05:31:26.142Z,12.35
2023-04-07T05:33:56.077Z,12.44
2023-04-07T05:36:25.603Z,12.54
2023-04-07T05:38:55.712Z,12.64
2023-04-07T05:41:22.400Z,12.58
2023-04-07T05:43:49.127Z,12.57
2023-04-07T05:46:17.073Z,12.56
2023-04-07T05:48:51.846Z,12.60
2023-04-07T05:51:19.572Z,12.59
2023-04-07T05:53:46.125Z,12.67
2023-04-07T05:56:12.639Z,12.76
2023-04-07T05:58:43.556Z,12.85
2023-04-07T06:01:11.299Z,12.92
2023-04-07T06:03:38.057Z,13.01
2023-04-07T06:06:12.623Z,13.11
2023-04-07T06:08:39.210Z,13.22
2023-04-07T06:11:06.116Z,13.26
2023-04-07T06:13:33.691Z,13.38
2023-04-07T06:16:00.255Z,13.59
2023-04-07T06:18:26.746Z,13.82
2023-04-07T06:20:53.226Z,13.99
2023-04-07T06:23:19.743Z,14.35
2023-04-07T06:25:46.388Z,15.21
2023-04-07T06:28:12.869Z,16.09
2023-04-07T06:30:41.004Z,16.85
2023-04-07T06:33:10.823Z,17.97
2023-04-07T06:35:39.366Z,19.19
2023-04-07T06:38:07.431Z,20.31
2023-04-07T06:40:33.960Z,21.19
2023-04-07T06:43:00.462Z,21.76
2023-04-07T06:45:33.336Z,22.46
2023-04-07T06:48:00.016Z,22.40
2023-04-07T06:50:26.573Z,22.62
2023-04-07T06:52:53.269Z,22.55
2023-04-07T06:55:19.772Z,22.92
2023-04-07T06:57:46.289Z,22.77
2023-04-07T07:00:12.937Z,22.31
2023-04-07T07:02:39.587Z,21.79
2023-04-07T07:05:07.053Z,21.25
2023-04-07T07:07:33.533Z,20.81
2023-04-07T07:09:59.987Z,20.46
2023-04-07T07:12:26.496Z,20.19
2023-04-07T07:14:53.003Z,19.82
2023-04-07T07:17:19.526Z,19.87
2023-04-07T07:19:46.014Z,20.13
2023-04-07T07:22:12.506Z,20.09
2023-04-07T07:24:39.035Z,20.28
2023-04-07T07:27:05.541Z,20.46
2023-04-07T07:29:32.144Z,20.64
2023-04-07T07:31:58.638Z,20.79
2023-04-07T07:34:25.278Z,20.70
2023-04-07T07:36:51.826Z,20.62
2023-04-07T07:39:18.342Z,20.35
2023-04-07T07:41:45.331Z,20.10
2023-04-07T07:44:11.859Z,20.04
2023-04-07T07:46:38.434Z,20.18
2023-04-07T07:49:05.864Z,20.29
2023-04-07T07:51:32.410Z,20.41
2023-04-07T07:53:59.005Z,20.54
2023-04-07T07:56:25.573Z,20.19
2023-04-07T07:58:52.224Z,19.78
2023-04-07T08:01:18.822Z,19.32
2023-04-07T08:03:45.946Z,18.97
2023-04-07T08:06:13.026Z,18.60
2023-04-07T08:08:39.542Z,18.41
2023-04-07T08:11:06.192Z,18.27
2023-04-07T08:13:32.884Z,18.23
2023-04-07T08:15:59.397Z,18.22
2023-04-07T08:18:25.954Z,18.18
2023-04-07T08:20:52.741Z,18.06
2023-04-07T08:23:19.317Z,18.02
2023-04-07T08:25:45.804Z,17.99
2023-04-07T08:28:12.436Z,18.00
2023-04-07T08:30:39.017Z,17.91
2023-04-07T08:33:06.450Z,17.87
2023-04-07T08:35:32.973Z,17.76
2023-04-07T08:37:59.521Z,17.75
2023-04-07T08:40:26.337Z,17.68
2023-04-07T08:42:53.312Z,17.71
2023-04-07T08:45:20.028Z,17.86
2023-04-07T08:47:48.022Z,17.86
2023-04-07T08:50:17.227Z,17.92
2023-04-07T08:52:57.480Z,18.09
2023-04-07T08:55:24.139Z,17.90
2023-04-07T08:57:51.448Z,17.78
2023-04-07T09:00:18.514Z,17.65
2023-04-07T09:02:45.819Z,17.62
2023-04-07T09:05:14.613Z,17.58
2023-04-07T09:07:43.181Z,17.49
2023-04-07T09:10:10.374Z,17.39
2023-04-07T09:12:37.449Z,17.39
2023-04-07T09:15:06.172Z,17.45
2023-04-07T09:17:32.995Z,17.47
2023-04-07T09:20:01.048Z,17.45
2023-04-07T09:22:37.948Z,17.67
2023-04-07T09:25:18.612Z,17.81
2023-04-07T09:28:14.671Z,18.11
2023-04-07T09:30:53.053Z,17.84
2023-04-07T09:33:28.084Z,17.66
2023-04-07T09:35:54.685Z,17.44
2023-04-07T09:38:21.213Z,17.33
2023-04-07T09:40:48.453Z,17.20
2023-04-07T09:43:17.216Z,17.19
2023-04-07T09:45:43.808Z,17.07
2023-04-07T09:48:20.768Z,17.25
2023-04-07T09:50:51.897Z,17.06
2023-04-07T09:53:20.181Z,17.78
2023-04-07T09:55:47.196Z,17.11
2023-04-07T09:58:16.995Z,16.90
2023-04-07T10:00:43.813Z,16.88
2023-04-07T10:03:10.996Z,16.85
2023-04-07T10:05:38.869Z,16.85
2023-04-07T10:08:06.634Z,16.83
2023-04-07T10:10:34.022Z,16.81
2023-04-07T10:13:00.742Z,16.93
2023-04-07T10:15:27.376Z,16.88
2023-04-07T10:17:54.028Z,16.97
2023-04-07T10:20:21.275Z,17.01
2023-04-07T10:22:51.358Z,17.10
2023-04-07T10:25:20.026Z,17.07
2023-04-07T10:27:55.244Z,17.13
2023-04-07T10:30:29.977Z,17.10
2023-04-07T10:32:57.158Z,16.99
2023-04-07T10:35:24.271Z,17.00
2023-04-07T10:38:11.589Z,17.26
2023-04-07T10:40:38.452Z,17.00
2023-04-07T10:43:09.717Z,16.95
2023-04-07T10:45:48.621Z,17.03
2023-04-07T10:48:16.511Z,16.83
2023-04-07T10:50:43.016Z,16.85
2023-04-07T10:53:12.323Z,16.96
2023-04-07T10:55:43.886Z,16.97
2023-04-07T10:58:25.981Z,17.11
2023-04-07T11:01:04.860Z,17.27
2023-04-07T11:03:34.080Z,17.16
2023-04-07T11:06:11.021Z,17.32
2023-04-07T11:08:39.253Z,17.24
2023-04-07T11:11:09.268Z,17.18
2023-04-07T11:13:42.346Z,17.37
2023-04-07T11:16:09.815Z,17.19
2023-04-07T11:18:37.507Z,17.25
2023-04-07T11:21:06.226Z,17.29
2023-04-07T11:23:46.095Z,17.47
2023-04-07T11:26:14.336Z,17.34
2023-04-07T11:28:48.129Z,17.38
2023-04-07T11:31:28.741Z,17.36
2023-04-07T11:33:57.154Z,17.22
2023-04-07T11:36:28.533Z,17.22
2023-04-07T11:38:56.493Z,17.06
2023-04-07T11:41:23.180Z,16.84
2023-04-07T11:43:51.042Z,16.60
2023-04-07T11:46:18.524Z,16.71
2023-04-07T11:48:45.863Z,16.58
2023-04-07T11:51:19.976Z,16.63
2023-04-07T11:53:47.638Z,16.32
2023-04-07T11:56:19.286Z,16.36
2023-04-07T11:58:49.608Z,16.18
2023-04-07T12:01:16.404Z,16.04
2023-04-07T12:04:00.218Z,16.21
2023-04-07T12:06:38.585Z,16.17
2023-04-07T12:09:05.800Z,16.21
2023-04-07T12:11:33.122Z,16.17
2023-04-07T12:13:59.673Z,16.10
2023-04-07T12:16:26.247Z,16.09
2023-04-07T12:18:53.028Z,16.13
2023-04-07T12:21:19.919Z,16.04
2023-04-07T12:23:47.938Z,15.95
2023-04-07T12:26:14.629Z,16.05
2023-04-07T12:28:41.152Z,16.02
2023-04-07T12:31:07.671Z,15.97
2023-04-07T12:33:34.143Z,16.04
2023-04-07T12:36:00.998Z,16.04
2023-04-07T12:38:28.767Z,15.96
2023-04-07T12:40:55.472Z,15.86
2023-04-07T12:43:21.966Z,15.81
2023-04-07T12:45:48.493Z,15.76
2023-04-07T12:48:16.269Z,15.71
2023-04-07T12:50:42.804Z,15.48
2023-04-07T12:53:09.387Z,15.50
2023-04-07T12:55:36.339Z,15.39
2023-04-07T12:58:03.226Z,15.43
2023-04-07T13:00:29.829Z,15.39
2023-04-07T13:02:56.655Z,15.33
2023-04-07T13:05:23.394Z,15.28
2023-04-07T13:07:50.068Z,15.22
2023-04-07T13:10:16.580Z,15.27
2023-04-07T13:12:43.260Z,15.21
2023-04-07T13:15:09.790Z,15.34
2023-04-07T13:17:39.225Z,15.32
2023-04-07T13:20:06.756Z,15.35
2023-04-07T13:22:35.735Z,15.28
2023-04-07T13:25:02.511Z,15.30
2023-04-07T13:27:29.060Z,15.28
2023-04-07T13:29:55.818Z,15.27
2023-04-07T13:32:22.350Z,15.25
2023-04-07T13:34:49.240Z,15.33
2023-04-07T13:37:16.620Z,15.35
2023-04-07T13:39:43.095Z,15.42
2023-04-07T13:42:10.913Z,15.43
2023-04-07T13:44:40.093Z,15.42
2023-04-07T13:47:06.758Z,15.49
2023-04-07T13:49:33.268Z,15.52
2023-04-07T13:51:59.756Z,15.45
2023-04-07T13:54:26.251Z,15.49
2023-04-07T13:56:52.769Z,15.47
2023-04-07T13:59:19.305Z,15.43
2023-04-07T14:01:45.938Z,15.38
2023-04-07T14:04:12.607Z,15.43
2023-04-07T14:06:39.170Z,15.38
2023-04-07T14:09:06.519Z,15.41
2023-04-07T14:11:34.782Z,15.37
2023-04-07T14:14:02.056Z,15.33
2023-04-07T14:16:28.957Z,15.39
2023-04-07T14:18:56.046Z,15.35
2023-04-07T14:21:22.974Z,15.34
2023-04-07T14:23:49.599Z,15.37
2023-04-07T14:26:16.168Z,15.35
2023-04-07T14:28:42.837Z,15.18
2023-04-07T14:31:14.265Z,15.13
2023-04-07T14:33:40.977Z,14.97
2023-04-07T14:36:07.624Z,14.89
2023-04-07T14:38:35.317Z,14.93
2023-04-07T14:43:32.668Z,14.98
2023-04-07T14:45:59.864Z,14.88
2023-04-07T14:48:26.713Z,14.80
2023-04-07T14:51:06.034Z,14.55
2023-04-07T14:53:35.114Z,14.51
2023-04-07T14:56:04.818Z,14.48
2023-04-07T14:58:31.913Z,14.56
2023-04-07T15:00:58.393Z,14.64
2023-04-07T15:03:25.186Z,14.66
2023-04-07T15:05:51.948Z,14.70
2023-04-07T15:08:18.522Z,14.72
2023-04-07T15:10:45.049Z,14.69
2023-04-07T15:13:11.624Z,14.52
2023-04-07T15:15:38.177Z,14.51
2023-04-07T15:18:04.803Z,14.51
2023-04-07T15:20:31.374Z,14.51
2023-04-07T15:22:58.031Z,14.43
2023-04-07T15:25:24.638Z,14.46
2023-04-07T15:27:51.310Z,14.50
2023-04-07T15:30:17.906Z,14.43
2023-04-07T15:33:03.006Z,14.57
2023-04-07T15:35:30.048Z,14.20
2023-04-07T15:37:56.620Z,14.31
2023-04-07T15:40:23.205Z,14.15
2023-04-07T15:42:49.769Z,14.17
2023-04-07T15:45:16.257Z,14.09
2023-04-07T15:47:42.851Z,14.09
2023-04-07T15:50:10.800Z,14.11
2023-04-07T15:52:37.500Z,14.08
2023-04-07T15:55:04.165Z,14.04
2023-04-07T15:57:30.882Z,14.04
2023-04-07T15:59:57.354Z,14.07
2023-04-07T16:02:24.076Z,14.06
2023-04-07T16:04:51.194Z,14.01
2023-04-07T16:07:17.869Z,13.97
2023-04-07T16:09:44.376Z,14.01
2023-04-07T16:12:10.905Z,13.99
2023-04-07T16:14:37.421Z,14.06
2023-04-07T16:17:03.979Z,14.20
2023-04-07T16:19:30.517Z,14.18
2023-04-07T16:21:57.002Z,14.17
2023-04-07T16:24:23.575Z,14.26
2023-04-07T16:26:51.366Z,14.33
2023-04-07T16:29:20.545Z,14.43
2023-04-07T16:31:47.076Z,14.37
2023-04-07T16:34:13.743Z,14.27
2023-04-07T16:36:41.081Z,14.26
2023-04-07T16:39:07.709Z,14.22
2023-04-07T16:41:34.209Z,14.18
2023-04-07T16:44:00.891Z,14.21
2023-04-07T16:46:29.767Z,14.24
2023-04-07T16:48:56.452Z,14.26
2023-04-07T16:51:24.160Z,14.28
2023-04-07T16:53:51.076Z,14.29
2023-04-07T16:56:19.041Z,14.34
2023-04-07T16:58:45.868Z,14.37
2023-04-07T17:01:12.477Z,14.32
2023-04-07T17:03:39.539Z,14.34
2023-04-07T17:06:06.183Z,14.38
2023-04-07T17:08:33.369Z,14.38
2023-04-07T17:11:00.014Z,14.41
2023-04-07T17:13:26.915Z,14.42
2023-04-07T17:15:54.005Z,14.46
2023-04-07T17:18:20.703Z,14.50
2023-04-07T17:20:47.227Z,14.51
2023-04-07T17:23:14.273Z,14.45
2023-04-07T17:25:40.967Z,14.48
2023-04-07T17:28:07.461Z,14.40
2023-04-07T17:30:36.413Z,14.49
2023-04-07T17:33:04.006Z,14.33
2023-04-07T17:35:30.626Z,14.33
2023-04-07T17:37:57.237Z,14.43
2023-04-07T17:40:23.740Z,14.36
2023-04-07T17:42:50.218Z,14.42
2023-04-07T17:45:17.765Z,14.49
2023-04-07T17:47:46.181Z,14.37
2023-04-07T17:50:13.211Z,14.31
2023-04-07T17:52:39.734Z,14.39
2023-04-07T17:55:07.954Z,14.41
2023-04-07T17:57:37.529Z,14.46
2023-04-07T18:00:05.828Z,14.35
2023-04-07T18:02:40.436Z,14.42
2023-04-07T18:05:07.386Z,14.39
2023-04-07T18:07:34.341Z,14.44
2023-04-07T18:10:01.417Z,14.41
2023-04-07T18:12:27.917Z,14.44
2023-04-07T18:14:54.432Z,14.45
2023-04-07T18:17:21.009Z,14.42
2023-04-07T18:19:47.521Z,14.38
2023-04-07T18:22:16.136Z,14.38
2023-04-07T18:24:42.721Z,14.34
2023-04-07T18:27:10.167Z,14.28
2023-04-07T18:29:36.673Z,14.33
2023-04-07T18:32:03.210Z,14.30
2023-04-07T18:34:29.730Z,14.32
2023-04-07T18:36:56.528Z,14.33
2023-04-07T18:39:23.084Z,14.33
2023-04-07T18:41:49.829Z,14.33
2023-04-07T18:44:16.284Z,14.38
2023-04-07T18:46:42.928Z,14.41
2023-04-07T18:49:10.264Z,14.42
2023-04-07T18:51:36.926Z,14.40
2023-04-07T18:54:03.487Z,14.42
2023-04-07T18:56:31.384Z,14.37
2023-04-07T18:58:57.966Z,14.42
2023-04-07T19:01:24.667Z,14.41
2023-04-07T19:03:51.495Z,14.43
2023-04-07T19:06:18.169Z,14.40
2023-04-07T19:08:45.301Z,14.41
2023-04-07T19:11:11.933Z,14.49
2023-04-07T19:13:38.467Z,14.39
2023-04-07T19:16:05.163Z,14.30
2023-04-07T19:18:32.068Z,14.24
2023-04-07T19:20:58.605Z,14.08
2023-04-07T19:23:25.370Z,14.09
2023-04-07T19:25:52.022Z,14.10
2023-04-07T19:28:18.727Z,14.07
2023-04-07T19:30:45.209Z,14.06
2023-04-07T19:33:12.046Z,14.03
2023-04-07T19:35:41.725Z,13.89
2023-04-07T19:38:08.256Z,13.91
2023-04-07T19:40:36.035Z,13.98
2023-04-07T19:43:02.552Z,13.90
2023-04-07T19:45:29.145Z,13.84
2023-04-07T19:47:56.826Z,13.80
2023-04-07T19:50:23.664Z,13.85
2023-04-07T19:52:53.204Z,13.89
2023-04-07T19:55:19.795Z,13.90
2023-04-07T19:57:47.067Z,13.89
2023-04-07T20:00:13.870Z,13.89
2023-04-07T20:02:49.822Z,13.89
2023-04-07T20:05:17.876Z,14.01
2023-04-07T20:07:44.700Z,14.06
2023-04-07T20:10:11.554Z,14.04
2023-04-07T20:12:38.045Z,14.08
2023-04-07T20:15:07.050Z,14.04
2023-04-07T20:17:33.618Z,14.05
2023-04-07T20:20:00.418Z,14.10
2023-04-07T20:22:26.890Z,14.02
2023-04-07T20:24:53.413Z,14.09
2023-04-07T20:27:19.949Z,14.19
2023-04-07T20:29:46.402Z,14.19
2023-04-07T20:32:12.985Z,14.22
2023-04-07T20:34:39.511Z,14.21
2023-04-07T20:37:06.014Z,14.21
2023-04-07T20:39:32.604Z,14.14
2023-04-07T20:41:59.435Z,14.22
2023-04-07T20:44:28.084Z,14.22
2023-04-07T20:46:54.657Z,14.29
2023-04-07T20:49:21.641Z,14.32
2023-04-07T20:51:48.153Z,14.36
2023-04-07T20:54:14.646Z,14.40
2023-04-07T20:56:42.877Z,14.39
2023-04-07T20:59:09.404Z,14.40
2023-04-07T21:01:36.530Z,14.37
2023-04-07T21:04:03.429Z,14.40
2023-04-07T21:06:30.009Z,14.41
2023-04-07T21:08:56.784Z,14.43
2023-04-07T21:11:23.275Z,14.13
2023-04-07T21:13:49.789Z,14.17
2023-04-07T21:16:16.458Z,14.16
2023-04-07T21:18:43.033Z,14.18
2023-04-07T21:21:09.595Z,14.18
2023-04-07T21:23:36.266Z,14.18
2023-04-07T21:26:03.296Z,14.19
2023-04-07T21:28:29.975Z,14.25
2023-04-07T21:30:56.808Z,14.30
2023-04-07T21:33:23.414Z,14.28
2023-04-07T21:35:50.907Z,14.29
2023-04-07T21:38:17.405Z,14.27
2023-04-07T21:40:43.935Z,14.27
2023-04-07T21:43:10.454Z,14.25
2023-04-07T21:45:36.957Z,14.27
2023-04-07T21:48:04.292Z,14.25
2023-04-07T21:50:31.198Z,14.30
2023-04-07T21:52:57.670Z,14.28
2023-04-07T21:55:24.193Z,14.32
2023-04-07T21:57:50.707Z,14.25
2023-04-07T22:00:17.324Z,14.21
2023-04-07T22:02:45.228Z,14.24
2023-04-07T22:05:12.099Z,14.22
2023-04-07T22:07:38.595Z,14.22
2023-04-07T22:10:05.593Z,14.15
2023-04-07T22:12:32.063Z,14.10
2023-04-07T22:14:58.571Z,14.02
2023-04-07T22:17:25.528Z,13.95
2023-04-07T22:19:52.104Z,13.92
2023-04-07T22:22:18.727Z,13.93
2023-04-07T22:24:45.389Z,13.80
2023-04-07T22:27:11.883Z,13.87
2023-04-07T22:29:38.368Z,13.76
2023-04-07T22:32:04.977Z,13.62
2023-04-07T22:34:31.489Z,13.63
2023-04-07T22:36:58.005Z,13.68
2023-04-07T22:39:24.552Z,13.68
2023-04-07T22:41:51.035Z,13.73
2023-04-07T22:44:17.568Z,13.72
2023-04-07T22:46:44.155Z,13.73
2023-04-07T22:49:10.968Z,13.70
2023-04-07T22:51:37.498Z,13.65
2023-04-07T22:54:04.044Z,13.70
2023-04-07T22:56:31.039Z,13.73
2023-04-07T22:59:05.205Z,13.75
2023-04-07T23:01:32.252Z,13.73
2023-04-07T23:03:59.100Z,13.71
2023-04-07T23:06:28.503Z,13.74
2023-04-07T23:08:55.732Z,13.74
2023-04-07T23:11:22.678Z,13.76
2023-04-07T23:13:49.494Z,13.73
2023-04-07T23:16:16.282Z,13.78
2023-04-07T23:18:42.954Z,13.82
2023-04-07T23:21:09.786Z,13.78
2023-04-07T23:23:36.608Z,13.79
2023-04-07T23:26:03.129Z,13.83
2023-04-07T23:28:29.694Z,13.75
2023-04-07T23:30:57.044Z,13.59
2023-04-07T23:33:23.751Z,13.64
2023-04-07T23:35:50.585Z,13.63
2023-04-07T23:38:17.184Z,13.67
2023-04-07T23:40:43.746Z,13.55
2023-04-07T23:43:10.752Z,13.43
2023-04-07T23:45:37.261Z,13.55
2023-04-07T23:48:03.809Z,13.54
2023-04-07T23:50:30.918Z,13.55
2023-04-07T23:52:57.442Z,13.44
2023-04-07T23:55:23.949Z,13.43
2023-04-07T23:57:50.628Z,13.57
